Richton Park, Illinois
Current Conditions -  °F | °C
As of 11:15 PM on Friday 24 Oct 2014 (Local Time) from KIGQ Reporting Station
Overcast Overcast  
Wind Chill: 14°   Ceiling: 4500
Heat Index: 14°   Visibility: 10mi
Dew Point:   Wind: 8mph
Humidity: 71%   Direction: 230°SW
Pressure: 29.96"   Gusts: NA
Location:  41.48°N, 87.72°W
Report Text: KIGQ 250415Z AUTO 23007KT 10SM OVC045 14/09 A2996 RMK AO2 T01430091
Loading
Personal Weather Stations






























Interactive Weather Map
Tropical Storm Tracking
New forecast layout! Learn more

10-Day Weather Forecast

Advertisements
Track Severe Weather on mobile